Date,TemperatureHighF,TemperatureAvgF,TemperatureLowF,DewpointHighF,DewpointAvgF,DewpointLowF,HumidityHigh,HumidityAvg,HumidityLow,PressureMaxIn,PressureMinIn,WindSpeedMaxMPH,WindSpeedAvgMPH,GustSpeedMaxMPH,PrecipitationSumIn
2013-1-1,28.0,19.6,10.0,25.0,14.6,5.0,90,81,71,30.24,30.10,7,4,12,0.01
2013-1-2,25.0,15.5,6.0,13.0,8.7,2.0,86,75,55,30.27,30.19,4,1,9,0.00
2013-1-3,34.0,25.2,15.0,27.0,19.3,11.0,85,78,73,30.37,30.19,9,3,15,0.02
2013-1-4,36.0,25.9,15.0,25.0,19.7,11.0,87,77,63,30.40,30.31,7,3,13,0.01
2013-1-5,39.0,31.6,23.0,30.0,25.0,18.0,85,76,66,30.32,30.09,7,3,12,0.01
2013-1-6,37.0,30.2,21.0,31.0,24.2,18.0,88,78,71,30.38,30.03,12,6,22,0.01
2013-1-7,38.0,28.2,19.0,27.0,21.9,16.0,89,78,60,30.40,30.17,7,3,15,0.00
2013-1-8,47.0,36.4,28.0,34.0,28.4,24.0,86,73,53,30.22,30.14,7,4,13,0.00
2013-1-9,51.0,42.6,34.0,38.0,35.3,30.0,90,76,60,30.49,30.15,6,3,13,0.02
2013-1-10,53.0,41.9,33.0,51.0,36.2,26.0,94,81,58,30.49,29.82,11,6,23,0.15
2013-1-11,59.0,54.7,50.0,57.0,49.6,47.0,95,83,70,29.90,29.76,10,6,20,0.27
2013-1-12,58.0,48.7,33.0,51.0,43.9,30.0,91,84,74,29.95,29.80,17,6,27,1.37
2013-1-13,33.0,25.1,18.0,30.0,20.5,12.0,90,83,73,30.32,29.85,15,10,21,1.25
2013-1-14,25.0,19.9,16.0,17.0,13.8,10.0,84,77,71,30.48,30.32,9,4,13,0.00
2013-1-15,29.0,23.8,17.0,23.0,17.6,13.0,86,77,66,30.42,30.12,9,3,14,0.00
2013-1-16,39.0,29.9,20.0,25.0,21.0,17.0,89,72,45,30.12,29.99,8,3,15,0.00
2013-1-17,37.0,32.6,24.0,30.0,25.4,20.0,85,75,61,30.47,30.10,10,4,16,0.00
2013-1-18,44.0,32.2,22.0,29.0,23.5,19.0,89,72,50,30.48,30.14,11,4,19,0.00
2013-1-19,54.0,46.0,37.0,38.0,34.0,29.0,75,63,53,30.06,29.89,12,7,24,0.00
2013-1-20,42.0,26.3,21.0,31.0,15.7,11.0,77,64,53,30.34,30.05,15,7,27,0.00
2013-1-21,21.0,16.0,11.0,15.0,3.6,-4.0,78,58,43,30.35,30.24,15,8,25,0.00
2013-1-22,17.0,12.1,7.0,3.0,-1.0,-4.0,73,56,43,30.45,30.35,8,4,16,0.00
2013-1-23,36.0,24.8,14.0,22.0,12.6,3.0,68,60,47,30.37,30.12,12,4,21,0.00
2013-1-24,27.0,20.0,11.0,13.0,6.9,1.0,68,56,43,30.61,30.30,12,6,20,0.00
2013-1-25,37.0,28.8,23.0,22.0,16.0,5.0,75,59,43,30.33,30.05,9,4,16,0.00
2013-1-26,35.0,26.2,16.0,21.0,14.5,9.0,74,62,43,30.39,30.18,8,3,12,0.00
2013-1-27,42.0,31.8,25.0,40.0,27.0,17.0,93,82,71,30.33,29.99,10,6,22,0.16
2013-1-28,60.0,53.4,42.0,57.0,50.7,40.0,94,91,88,29.99,29.89,9,6,20,0.09
2013-1-29,64.0,60.1,52.0,58.0,55.8,50.0,93,86,76,29.89,29.42,11,8,23,1.05
2013-1-30,52.0,40.4,26.0,50.0,35.8,16.0,94,83,66,29.79,29.34,15,9,30,1.21
2013-1-31,29.0,21.5,9.0,19.0,12.1,0.0,75,66,59,30.29,29.79,16,11,28,0.01
2013-2-1,23.0,14.5,7.0,16.0,4.0,-1.0,77,63,49,30.46,30.22,13,7,25,0.00
2013-2-2,33.0,25.9,21.0,25.0,19.0,14.0,87,75,67,30.22,30.03,13,6,20,0.01
2013-2-3,31.0,26.2,21.0,24.0,18.5,14.0,90,73,49,30.12,29.98,15,5,26,0.01
2013-2-4,50.0,34.2,25.0,34.0,25.3,19.0,83,70,51,30.03,29.77,12,6,19,0.00
2013-2-5,46.0,34.3,27.0,35.0,28.3,23.0,88,79,64,30.00,29.85,8,3,17,0.00
2013-2-6,47.0,38.5,26.0,32.0,29.6,23.0,91,71,55,30.23,30.10,7,4,13,0.00
2013-2-7,57.0,41.0,32.0,45.0,35.0,27.0,91,80,57,30.10,29.83,13,5,23,0.20
2013-2-8,37.0,32.0,29.0,34.0,27.1,24.0,90,82,75,30.38,29.97,12,7,21,0.13
2013-2-9,42.0,34.3,30.0,31.0,26.9,23.0,78,74,65,30.37,30.05,10,5,18,0.00
2013-2-10,53.0,44.3,37.0,50.0,40.4,30.0,93,87,57,30.06,29.61,11,7,26,0.71
2013-2-11,50.0,39.5,31.0,35.0,29.0,26.0,85,66,56,30.12,29.68,13,7,27,0.01
2013-2-12,41.0,33.3,26.0,31.0,27.5,23.0,91,80,63,30.14,29.92,5,2,10,0.00
2013-2-13,50.0,39.0,32.0,32.0,29.7,28.0,90,71,44,29.92,29.77,9,2,17,0.00
2013-2-14,49.0,40.2,34.0,37.0,32.2,28.0,83,73,58,30.02,29.78,11,5,22,0.00
2013-2-15,35.0,31.7,26.0,31.0,22.6,16.0,85,70,48,30.21,30.02,14,7,21,0.00
2013-2-16,31.0,24.1,18.0,18.0,14.1,11.0,79,66,48,30.22,30.13,10,5,16,0.00
2013-2-17,38.0,27.7,16.0,24.0,18.0,10.0,80,67,51,30.22,29.98,8,5,15,0.00
2013-2-18,54.0,42.5,32.0,46.0,35.2,23.0,91,76,63,29.98,29.53,15,8,30,0.25
2013-2-19,32.0,25.4,21.0,27.0,16.6,11.0,80,69,62,30.24,29.78,13,10,28,0.25
2013-2-20,24.0,19.7,12.0,18.0,10.7,6.0,78,68,58,30.40,30.24,11,5,17,0.00
2013-2-21,32.0,25.0,20.0,31.0,20.7,15.0,98,84,75,30.32,29.83,13,7,30,0.00
2013-2-22,36.0,31.8,27.0,32.0,28.2,20.0,94,87,76,30.03,29.79,9,3,17,0.27
2013-2-23,29.0,24.4,19.0,21.0,18.4,15.0,86,78,69,30.02,29.97,5,2,10,0.12
2013-2-24,40.0,28.2,15.0,26.0,20.5,12.0,90,74,51,30.14,29.99,4,1,8,0.13
2013-2-25,45.0,36.7,29.0,33.0,28.7,24.0,82,73,60,30.09,29.72,13,6,23,0.01
2013-2-26,39.0,35.4,33.0,37.0,32.7,30.0,94,90,78,29.72,29.36,15,6,27,1.01
2013-2-27,34.0,32.5,31.0,31.0,30.0,29.0,94,91,87,29.79,29.53,8,6,17,0.61
2013-2-28,35.0,33.0,32.0,32.0,30.3,29.0,93,90,88,30.05,29.79,10,6,14,0.03
2013-3-1,32.0,30.5,28.0,30.0,27.6,24.0,93,89,83,30.14,30.02,10,6,16,0.05
2013-3-2,31.0,27.4,23.0,25.0,20.7,14.0,87,76,51,30.19,30.13,12,7,18,0.01
2013-3-3,35.0,26.9,19.0,23.0,17.6,15.0,87,69,47,30.17,30.06,5,2,11,0.01
2013-3-4,38.0,34.0,29.0,29.0,25.6,21.0,81,71,64,30.08,29.84,15,7,26,0.01
2013-3-5,38.0,33.7,30.0,32.0,28.5,25.0,93,81,64,29.98,29.78,17,9,30,0.04
2013-3-6,31.0,29.2,28.0,27.0,24.6,23.0,88,82,78,30.33,29.98,16,10,29,0.01
2013-3-7,37.0,31.6,28.0,28.0,25.7,23.0,87,79,68,30.41,30.32,6,2,10,0.00
2013-3-8,48.0,37.6,28.0,35.0,29.8,24.0,87,74,58,30.45,30.26,9,4,16,0.00
2013-3-9,57.0,45.6,38.0,42.0,35.5,30.0,83,68,56,30.26,29.84,12,6,21,0.05
2013-3-10,62.0,53.9,49.0,51.0,44.8,37.0,93,72,54,29.84,29.64,12,6,23,0.25
2013-3-11,49.0,37.8,33.0,47.0,34.1,28.0,93,86,78,29.93,29.65,11,7,22,0.19
2013-3-12,44.0,35.4,29.0,33.0,27.0,24.0,88,72,57,30.14,29.93,16,7,29,0.01
2013-3-13,36.0,29.4,25.0,26.0,20.2,18.0,88,69,52,30.38,30.14,14,8,23,0.00
2013-3-14,42.0,32.4,23.0,30.0,24.6,20.0,89,73,55,30.37,30.12,9,3,17,0.00
2013-3-15,61.0,44.3,29.0,46.0,36.3,26.0,91,75,50,30.12,29.65,5,3,13,0.00
2013-3-16,56.0,42.0,35.0,48.0,36.9,29.0,93,82,73,30.06,29.61,11,6,17,0.00
2013-3-17,38.0,34.5,32.0,32.0,28.8,26.0,90,79,70,30.11,29.83,11,6,18,0.15
2013-3-18,43.0,37.4,32.0,37.0,33.4,25.0,93,86,67,29.95,29.65,13,6,19,0.30
2013-3-19,42.0,33.7,27.0,25.0,20.7,16.0,80,60,41,30.16,29.95,11,6,22,0.01
2013-3-20,34.0,27.8,22.0,23.0,15.0,9.0,75,59,43,30.21,30.08,14,8,25,0.00
2013-3-21,34.0,25.3,18.0,19.0,13.3,9.0,78,61,46,30.10,30.00,8,4,14,0.00
2013-3-22,41.0,32.5,21.0,24.0,19.9,16.0,87,61,42,30.06,29.99,6,2,11,0.00
2013-3-23,52.0,42.6,35.0,28.0,25.9,24.0,72,52,36,30.05,29.86,10,4,18,0.00
2013-3-24,40.0,32.5,30.0,31.0,28.8,26.0,94,87,57,29.89,29.49,14,8,26,0.08
2013-3-25,33.0,30.1,27.0,28.0,27.1,25.0,94,89,80,30.11,29.67,14,9,23,0.15
2013-3-26,37.0,32.7,30.0,28.0,26.4,25.0,85,78,66,30.31,30.11,8,5,14,0.42
2013-3-27,41.0,34.5,28.0,28.0,24.8,22.0,81,68,53,30.38,30.30,6,2,10,0.16
2013-3-28,52.0,38.0,24.0,33.0,27.4,21.0,91,68,46,30.39,30.27,6,2,9,0.00
2013-3-29,58.0,46.9,37.0,37.0,34.0,30.0,80,62,44,30.28,30.19,8,4,13,0.00
2013-3-30,56.0,47.1,35.0,45.0,37.9,-99.9,89,74,55,30.22,29.91,8,3,16,0.02
2013-3-31,61.0,50.6,45.0,48.0,43.8,34.0,92,78,56,29.91,29.82,9,4,17,0.02
2013-4-1,45.0,39.5,34.0,34.0,25.3,19.0,72,58,36,30.20,29.91,13,7,21,0.01
2013-4-2,46.0,35.9,26.0,23.0,20.1,16.0,77,55,30,30.33,30.20,7,3,14,0.00
2013-4-3,51.0,40.2,28.0,26.0,21.4,19.0,73,49,31,30.40,30.27,10,4,16,0.00
2013-4-4,59.0,46.3,32.0,28.0,22.3,18.0,72,41,23,30.27,30.01,6,3,11,0.00
2013-4-5,62.0,48.8,36.0,36.0,29.7,27.0,75,51,27,30.15,30.03,7,3,13,0.00
2013-4-6,72.0,57.9,45.0,44.0,36.6,28.0,62,46,33,30.08,29.74,14,8,28,0.00
2013-4-7,74.0,63.3,48.0,54.0,46.0,41.0,83,56,31,29.94,29.78,15,3,21,0.15
2013-4-8,74.0,64.6,57.0,60.0,56.4,52.0,88,75,62,29.90,29.75,10,6,23,0.15
2013-4-9,75.0,68.6,62.0,63.0,58.9,55.0,79,72,63,29.91,29.85,13,5,26,0.01
2013-4-10,79.0,67.7,51.0,67.0,61.3,48.0,92,81,65,29.85,29.63,12,6,23,0.67
2013-4-11,59.0,49.5,40.0,57.0,46.1,33.0,94,88,75,29.78,29.58,10,5,22,0.97
2013-4-12,43.0,40.6,36.0,35.0,32.6,29.0,79,73,64,29.96,29.68,12,5,21,0.01
2013-4-13,55.0,46.3,37.0,40.0,35.3,32.0,82,66,50,30.04,29.93,9,4,21,0.00
2013-4-14,75.0,60.6,47.0,51.0,45.1,39.0,78,59,38,29.97,29.68,11,6,24,0.02
2013-4-15,68.0,59.3,53.0,61.0,53.6,47.0,92,82,61,29.91,29.75,10,5,20,0.24
2013-4-16,53.0,47.7,45.0,50.0,44.8,42.0,93,89,83,30.16,29.87,9,5,19,1.18
2013-4-17,79.0,61.3,46.0,70.0,56.0,43.0,94,84,67,30.14,29.75,9,6,23,0.12
2013-4-18,74.0,61.5,42.0,65.0,57.4,36.0,95,87,73,29.75,29.56,12,6,23,2.41
2013-4-19,44.0,39.8,37.0,36.0,31.2,28.0,80,72,64,30.02,29.67,11,6,22,0.48
2013-4-20,49.0,40.2,30.0,33.0,29.5,26.0,87,67,47,30.37,30.02,7,3,12,0.00
2013-4-21,58.0,46.6,37.0,38.0,33.0,29.0,74,61,42,30.46,30.29,9,5,19,0.00
2013-4-22,70.0,56.5,41.0,46.0,40.1,34.0,76,56,37,30.29,30.03,6,4,14,0.00
2013-4-23,60.0,54.4,41.0,55.0,47.9,39.0,92,79,66,30.05,29.83,11,4,22,0.61
2013-4-24,49.0,41.9,37.0,39.0,35.1,33.0,91,78,54,30.23,29.93,11,6,21,0.76
2013-4-25,57.0,46.9,37.0,37.0,32.9,29.0,85,61,38,30.33,30.20,11,4,19,0.01
2013-4-26,63.0,52.4,42.0,47.0,40.5,34.0,76,64,50,30.39,30.28,7,3,16,0.00
2013-4-27,55.0,51.9,48.0,51.0,47.5,43.0,94,85,70,30.31,29.92,8,3,17,0.36
2013-4-28,59.0,54.9,53.0,54.0,52.5,50.0,95,91,84,29.92,29.84,10,2,17,0.63
2013-4-29,74.0,60.5,45.0,59.0,52.6,43.0,95,77,55,29.96,29.82,7,3,19,0.01
2013-4-30,84.0,70.7,58.0,63.0,58.1,54.0,86,66,43,29.97,29.83,6,4,13,0.01
2013-5-1,83.0,71.0,57.0,59.0,56.3,53.0,86,62,38,30.11,29.96,6,2,15,0.00
2013-5-2,75.0,65.2,56.0,64.0,58.2,53.0,92,79,60,30.12,30.03,6,2,11,0.42
2013-5-3,69.0,59.6,49.0,61.0,54.8,47.0,95,85,68,30.08,29.79,7,4,15,0.57
2013-5-4,56.0,50.6,47.0,53.0,48.4,45.0,94,92,90,30.02,29.85,5,1,14,0.72
2013-5-5,60.0,54.2,49.0,56.0,51.5,47.0,94,91,84,30.01,29.91,7,3,14,0.17
2013-5-6,66.0,58.5,53.0,58.0,53.6,50.0,93,85,73,29.99,29.92,4,2,11,0.06
2013-5-7,77.0,65.3,58.0,58.0,54.8,52.0,91,72,43,30.04,29.96,4,1,9,0.01
2013-5-8,80.0,66.9,53.0,57.0,52.8,47.0,93,66,31,30.04,29.97,3,1,7,0.00
2013-5-9,66.0,61.5,57.0,63.0,58.6,54.0,94,90,86,30.01,29.85,6,1,13,0.99
2013-5-10,67.0,59.2,53.0,59.0,55.3,49.0,94,87,74,29.97,29.84,9,3,16,0.10
2013-5-11,65.0,53.5,47.0,53.0,43.2,-99.9,93,73,37,30.12,29.96,12,5,27,0.03
2013-5-12,58.0,49.9,39.0,38.0,32.6,28.0,80,54,36,30.20,30.12,11,4,22,0.00
2013-5-13,68.0,54.2,38.0,41.0,37.4,33.0,89,58,29,30.22,30.08,4,1,10,0.00
2013-5-14,88.0,68.0,53.0,62.0,51.6,40.0,66,56,41,30.08,29.78,7,3,14,0.00
2013-5-15,87.0,76.5,64.0,65.0,59.3,53.0,68,56,44,29.93,29.81,7,4,20,0.00
2013-5-16,76.0,66.8,64.0,66.0,42.9,-99.9,88,74,57,29.96,29.84,5,2,13,0.00
2013-5-17,77.0,68.2,63.0,65.0,58.9,-99.9,94,80,62,30.00,29.95,6,2,16,0.00
2013-5-18,80.0,71.2,62.0,65.0,63.2,60.0,93,77,60,30.03,29.93,6,2,11,0.00
2013-5-19,87.0,74.3,62.0,74.0,66.7,60.0,93,78,64,29.94,29.79,7,3,17,0.00
2013-5-20,84.0,76.4,66.0,70.0,66.2,59.0,85,71,56,29.91,29.77,7,4,17,0.01
2013-5-21,81.0,70.5,62.0,68.0,64.0,60.0,93,81,61,29.89,29.72,6,4,16,0.66
2013-5-22,75.0,68.1,63.0,63.0,59.5,55.0,87,75,51,29.85,29.69,5,3,14,0.01
2013-5-23,63.0,58.7,51.0,57.0,52.5,44.0,89,80,76,30.24,29.85,9,4,20,0.02
2013-5-24,69.0,55.3,41.0,46.0,40.4,34.0,82,60,33,30.41,30.24,6,2,9,0.01
2013-5-25,59.0,54.3,50.0,51.0,46.1,40.0,83,74,64,30.38,30.22,10,3,18,0.05
2013-5-26,63.0,55.8,52.0,59.0,52.3,47.0,93,88,80,30.26,30.06,10,4,15,1.77
2013-5-27,79.0,65.4,61.0,68.0,61.3,57.0,94,87,68,30.06,29.80,8,2,16,0.84
2013-5-28,81.0,71.1,62.0,69.0,64.3,60.0,94,80,66,29.93,29.81,8,3,20,0.17
2013-5-29,85.0,75.6,64.0,69.0,65.0,59.0,86,70,58,29.99,29.89,7,3,17,0.01
2013-5-30,85.0,75.9,66.0,70.0,66.9,63.0,91,74,60,29.96,29.86,8,5,21,0.17
2013-5-31,78.0,70.2,62.0,71.0,65.6,60.0,93,86,72,29.92,29.79,6,4,16,0.75
2013-6-1,73.0,66.7,63.0,65.0,62.4,58.0,94,86,73,29.86,29.75,8,4,17,0.61
2013-6-2,66.0,61.6,59.0,59.0,56.8,54.0,90,85,76,30.03,29.85,6,3,13,0.03
2013-6-3,68.0,60.3,54.0,54.0,49.3,46.0,90,69,48,30.12,30.03,4,2,10,0.03
2013-6-4,73.0,65.2,55.0,57.0,53.9,49.0,84,68,54,30.10,30.03,6,2,12,0.00
2013-6-5,82.0,72.0,60.0,64.0,58.8,54.0,82,65,47,30.05,29.86,4,1,8,0.00
2013-6-6,80.0,71.6,66.0,64.0,61.2,59.0,89,71,51,29.88,29.80,9,3,18,0.00
2013-6-7,74.0,66.6,58.0,61.0,56.6,52.0,84,71,55,29.91,29.85,4,2,9,0.00
2013-6-8,79.0,68.5,55.0,60.0,56.2,52.0,89,67,44,29.99,29.90,5,1,11,0.00
2013-6-9,81.0,69.9,62.0,65.0,60.1,57.0,92,73,48,29.99,29.82,6,2,15,0.02
2013-6-10,78.0,68.4,62.0,64.0,61.4,60.0,94,80,56,29.91,29.78,5,2,12,0.03
2013-6-11,85.0,75.6,61.0,73.0,66.9,58.0,92,75,60,29.99,29.86,5,2,13,0.03
2013-6-12,92.0,82.1,73.0,74.0,71.6,69.0,90,72,55,29.94,29.69,9,3,20,0.02
2013-6-13,85.0,76.6,68.0,71.0,61.5,52.0,86,62,35,30.00,29.70,8,5,18,0.00
2013-6-14,82.0,71.6,59.0,58.0,54.7,50.0,82,58,35,30.11,29.96,5,2,11,0.00
2013-6-15,84.0,73.7,63.0,68.0,61.5,56.0,89,67,56,30.10,29.92,9,2,21,0.20
2013-6-16,79.0,70.8,66.0,72.0,67.2,64.0,94,88,77,30.06,29.94,9,1,21,0.50
2013-6-17,86.0,75.2,67.0,73.0,68.9,62.0,96,82,55,29.97,29.89,4,1,11,0.02
2013-6-18,86.0,75.1,63.0,69.0,64.4,60.0,94,71,50,30.00,29.90,3,1,8,0.00
2013-6-19,82.0,72.6,61.0,67.0,62.9,57.0,88,73,56,30.09,30.00,4,1,9,0.00
2013-6-20,88.0,76.8,68.0,69.0,65.8,63.0,88,71,43,30.16,30.08,5,2,9,0.00
2013-6-22,85.0,76.8,68.0,73.0,69.9,66.0,93,80,68,30.13,30.10,7,4,14,1.16
2013-6-23,77.0,70.6,66.0,71.0,66.5,64.0,93,87,78,30.10,30.01,7,2,16,0.32
2013-6-24,90.0,76.5,66.0,77.0,69.4,63.0,92,80,57,30.11,29.97,4,2,11,0.16
2013-6-25,90.0,78.7,72.0,76.0,71.2,67.0,90,79,63,30.01,29.83,5,2,13,0.00
2013-6-26,81.0,74.8,71.0,76.0,70.8,66.0,94,87,81,29.93,29.72,6,2,18,0.97
2013-6-27,89.0,80.1,73.0,74.0,71.3,67.0,96,77,53,29.86,29.77,8,3,17,0.01
2013-6-28,84.0,76.8,70.0,68.0,64.8,56.0,88,69,40,29.83,29.69,10,3,22,0.01
2013-6-29,73.0,68.7,65.0,65.0,62.6,60.0,92,81,69,29.72,29.64,5,2,12,0.26
2013-6-30,74.0,67.7,62.0,65.0,62.0,59.0,92,83,68,29.90,29.72,7,4,18,0.26
2013-7-1,74.0,67.0,62.0,63.0,59.2,56.0,91,76,64,29.98,29.90,5,3,12,0.08
2013-7-2,68.0,64.7,61.0,61.0,59.6,57.0,89,84,79,30.03,29.96,6,3,13,0.15
2013-7-3,79.0,66.9,61.0,61.0,59.6,58.0,94,80,48,30.09,30.01,3,1,7,0.13
2013-7-4,82.0,72.1,59.0,66.0,60.1,56.0,90,68,42,30.13,30.04,6,2,10,0.01
2013-7-5,81.0,72.7,65.0,68.0,65.7,63.0,95,80,61,30.12,30.03,6,1,10,0.00
2013-7-6,82.0,72.0,68.0,70.0,67.3,65.0,94,86,62,30.09,30.02,8,1,12,0.00
2013-7-7,88.0,75.1,64.0,73.0,67.1,61.0,91,77,59,30.09,30.00,4,1,10,0.00
2013-7-8,84.0,76.7,71.0,76.0,70.7,67.0,90,82,71,30.12,30.01,3,1,10,0.00
2013-7-9,91.0,82.8,75.0,77.0,73.5,70.0,86,74,58,30.05,29.94,4,1,9,0.00
2013-7-10,84.0,78.4,71.0,76.0,72.3,69.0,93,82,68,30.04,29.88,6,2,21,0.94
2013-7-11,81.0,72.5,64.0,66.0,61.5,59.0,90,70,48,30.08,29.99,5,2,14,0.14
2013-7-12,83.0,73.2,58.0,63.0,57.2,51.0,85,59,36,30.14,30.06,4,2,10,0.00
2013-7-13,83.0,74.5,61.0,66.0,62.4,57.0,89,67,52,30.13,30.05,8,2,12,0.00
2013-7-14,88.0,78.5,68.0,72.0,67.9,62.0,84,71,56,30.18,30.09,6,2,12,0.00
2013-7-15,88.0,78.9,73.0,75.0,71.7,69.0,89,79,65,30.27,30.17,4,1,10,0.00
2013-7-16,92.0,82.4,72.0,74.0,71.4,69.0,91,71,50,30.33,30.25,5,1,9,0.00
2013-7-17,93.0,82.9,72.0,75.0,72.6,70.0,93,73,51,30.35,30.20,2,0,6,0.00
2013-7-18,94.0,83.8,73.0,75.0,73.5,71.0,93,73,53,30.22,30.04,4,1,7,0.00
2013-7-19,93.0,83.5,75.0,76.0,73.6,71.0,89,73,57,30.04,29.88,6,2,12,0.00
2013-7-20,86.0,77.6,69.0,75.0,71.4,67.0,93,82,68,29.94,29.85,7,2,17,0.30
2013-7-21,81.0,73.9,69.0,73.0,69.9,67.0,95,88,72,29.97,29.85,3,1,9,0.01
2013-7-22,85.0,76.1,69.0,74.0,69.6,67.0,95,82,60,29.86,29.79,6,1,9,1.59
2013-7-23,86.0,77.9,69.0,74.0,69.4,62.0,93,76,53,29.91,29.78,6,2,13,0.02
2013-7-24,76.0,68.8,61.0,62.0,55.6,52.0,85,64,51,30.04,29.91,6,2,15,0.00
2013-7-25,79.0,68.1,54.0,62.0,56.6,51.0,90,69,49,30.14,30.04,5,1,9,0.00
2013-7-26,75.0,67.6,59.0,66.0,61.4,55.0,92,81,66,30.09,29.93,4,1,13,0.00
2013-7-27,72.0,65.1,55.0,66.0,56.0,48.0,92,74,50,30.00,29.94,9,3,20,0.01
2013-7-28,75.0,63.2,50.0,56.0,51.3,47.0,91,68,46,30.06,29.99,5,1,14,0.01
2013-7-29,79.0,66.9,53.0,62.0,56.4,50.0,92,71,46,30.18,30.06,3,0,7,0.00
2013-7-30,69.0,67.2,65.0,66.0,63.3,60.0,94,88,76,30.17,30.05,6,2,14,0.50
2013-7-31,77.0,71.1,66.0,71.0,67.9,63.0,96,89,80,30.06,29.98,6,1,12,0.01
2013-8-1,82.0,72.6,63.0,68.0,63.2,61.0,95,75,49,30.07,29.99,5,1,10,0.01
2013-8-2,78.0,71.2,64.0,71.0,66.4,61.0,91,85,78,30.01,29.94,6,1,9,0.01
2013-8-3,82.0,74.6,67.0,70.0,66.8,61.0,93,78,55,30.11,29.95,5,1,8,0.00
2013-8-4,78.0,69.1,57.0,63.0,58.5,54.0,93,71,50,30.20,30.12,3,0,7,0.00
2013-8-5,79.0,69.4,60.0,65.0,61.0,57.0,92,76,56,30.13,29.91,5,2,11,0.00
2013-8-6,82.0,72.8,67.0,74.0,68.7,64.0,94,87,73,29.94,29.87,4,1,9,0.00
2013-8-7,84.0,75.8,69.0,75.0,70.6,67.0,95,85,70,29.93,29.85,2,1,7,0.00
2013-8-8,81.0,73.9,68.0,73.0,70.1,66.0,95,88,78,29.97,29.89,4,1,8,0.00
2013-8-9,81.0,71.8,61.0,68.0,64.3,58.0,91,78,58,30.07,29.95,3,1,8,0.00
2013-8-10,83.0,74.0,66.0,70.0,65.3,61.0,92,76,51,30.14,30.07,6,1,10,0.00
2013-8-11,82.0,70.1,58.0,65.0,60.6,56.0,93,74,52,30.16,30.06,4,1,8,0.00
2013-8-12,81.0,71.4,63.0,73.0,66.4,61.0,94,85,70,30.09,29.91,4,1,7,0.26
2013-8-13,77.0,67.7,61.0,66.0,59.1,-99.9,94,78,53,30.14,29.93,6,2,14,0.01
2013-8-14,72.0,62.2,50.0,55.0,51.7,47.0,92,70,52,30.23,30.14,7,2,13,0.00
2013-8-15,73.0,59.0,52.0,56.0,41.6,-99.9,89,66,48,30.20,30.11,7,1,12,0.00
2013-8-16,75.0,65.2,57.0,57.0,51.7,-99.9,90,68,46,30.17,30.11,7,2,15,0.00
2013-8-17,79.0,67.3,57.0,62.0,55.6,-99.9,91,70,52,30.21,30.13,6,1,12,0.00
2013-8-18,84.0,71.5,58.0,66.0,61.2,55.0,91,72,49,30.18,30.09,3,1,9,0.00
2013-8-19,84.0,68.8,61.0,66.0,49.9,-99.9,94,73,53,30.15,30.05,5,1,9,0.00
2013-8-20,85.0,73.8,63.0,69.0,62.8,-99.9,92,73,53,30.14,30.05,3,0,8,0.00
2013-8-21,87.0,76.5,66.0,71.0,67.4,64.0,94,75,53,30.14,30.04,4,1,10,0.00
2013-8-22,88.0,76.0,68.0,73.0,68.1,65.0,93,78,59,30.11,30.03,8,2,16,0.00
2013-8-23,86.0,76.0,66.0,69.0,67.0,64.0,95,75,54,30.14,30.07,4,2,9,0.08
2013-8-24,87.0,76.0,67.0,70.0,63.5,-99.9,84,68,50,30.24,30.14,5,2,12,0.01
2013-8-25,88.0,76.4,64.0,67.0,63.7,61.0,90,67,44,30.29,30.19,4,1,9,0.00
2013-8-26,90.0,78.2,69.0,76.0,70.3,64.0,94,78,55,30.23,30.08,4,1,9,0.00
2013-8-27,90.0,78.0,71.0,75.0,71.4,69.0,93,81,54,30.09,30.01,4,1,14,0.00
2013-9-9,95.0,80.8,70.0,75.0,71.6,68.0,94,76,51,29.98,29.91,5,1,13,0.00
2013-9-10,97.0,83.8,72.0,74.0,71.3,68.0,93,69,39,30.10,29.98,5,1,11,0.00
2013-9-11,94.0,81.7,71.0,71.0,67.9,64.0,91,66,39,30.14,30.03,4,1,11,0.00
2013-9-12,82.0,73.0,60.0,69.0,63.7,52.0,92,74,45,30.09,29.96,8,2,15,0.19
2013-9-13,72.0,63.1,55.0,57.0,50.3,43.0,89,66,36,30.15,30.06,6,2,14,0.01
2013-9-14,74.0,60.7,49.0,49.0,43.7,-99.9,82,58,33,30.19,30.07,5,2,13,0.00
2013-9-15,75.0,60.5,50.0,60.0,50.2,45.0,84,71,45,30.10,30.00,5,1,9,0.00
2013-9-16,69.0,63.5,60.0,60.0,55.1,52.0,89,75,61,30.29,30.09,8,3,16,0.00
2013-9-17,75.0,64.4,54.0,57.0,53.3,49.0,85,69,49,30.29,30.11,6,3,14,0.00
2013-9-18,72.0,64.2,61.0,68.0,57.9,55.0,92,81,71,30.11,30.01,3,1,7,0.13
2013-9-19,90.0,78.8,71.0,73.0,69.9,68.0,91,76,53,30.01,29.87,5,2,14,0.01
2013-9-24,79.0,65.8,52.0,60.0,54.5,47.0,85,69,49,30.00,29.85,8,3,13,0.00
2013-9-25,82.0,71.7,61.0,64.0,60.6,58.0,89,70,49,29.91,29.83,5,2,12,0.00
2013-9-26,82.0,70.9,61.0,63.0,55.9,50.0,77,61,40,30.06,29.90,3,1,9,0.00
2013-9-27,81.0,68.1,56.0,58.0,53.6,50.0,82,62,39,30.16,30.04,6,1,14,0.00
2013-9-28,82.0,68.7,56.0,63.0,55.5,-99.9,89,67,47,30.10,29.97,6,2,18,0.00
2013-9-29,75.0,65.5,55.0,62.0,53.5,47.0,93,68,39,30.06,29.97,7,2,12,0.11
2013-9-30,75.0,63.5,54.0,63.0,58.2,50.0,95,84,60,30.02,29.92,5,1,11,0.01
2013-10-2,79.0,70.2,65.0,70.0,66.9,63.0,96,90,71,30.09,30.00,4,1,9,0.03
2013-10-3,83.0,73.6,66.0,70.0,66.6,62.0,94,80,61,30.01,29.90,5,2,15,0.05
2013-10-4,86.0,75.1,67.0,70.0,66.8,62.0,92,77,56,30.01,29.93,4,2,14,0.01
2013-10-5,78.0,71.3,67.0,71.0,68.0,65.0,94,90,76,29.98,29.82,8,1,19,0.04
2013-10-6,63.0,55.6,50.0,60.0,45.4,39.0,92,70,49,29.87,29.79,7,2,18,0.01
2013-10-7,67.0,53.4,44.0,49.0,45.2,41.0,91,76,47,30.14,29.84,7,2,16,0.01
2013-10-8,75.0,60.5,45.0,53.0,47.3,43.0,93,66,38,30.23,30.14,4,1,13,0.01
2013-10-9,75.0,61.0,47.0,51.0,47.8,43.0,86,64,38,30.22,30.11,4,1,9,0.00
2013-10-10,78.0,64.8,52.0,61.0,54.9,48.0,91,72,49,30.17,30.04,4,0,9,0.00
2013-10-13,71.0,56.9,43.0,47.0,38.7,34.0,88,56,26,30.39,30.19,6,1,13,0.04
2013-10-14,70.0,57.5,47.0,47.0,41.9,38.0,76,58,36,30.37,30.11,7,3,13,0.00
2013-10-15,64.0,60.9,57.0,62.0,55.7,47.0,92,83,66,30.11,29.89,6,2,14,0.06
2013-10-16,57.0,49.9,42.0,52.0,43.1,39.0,89,78,66,30.02,29.95,6,1,13,0.01
2013-10-17,60.0,49.5,42.0,46.0,42.5,39.0,93,78,50,30.01,29.91,5,1,14,0.01
2013-10-18,57.0,49.0,41.0,46.0,41.3,38.0,91,75,57,30.03,29.94,5,1,11,0.01
2013-10-19,55.0,46.3,40.0,41.0,36.7,-99.9,93,73,47,29.98,29.92,8,2,19,0.29
2013-10-20,68.0,56.2,39.0,45.0,41.5,35.0,87,60,39,29.96,29.85,8,3,22,0.01
2013-10-21,54.0,48.0,34.0,45.0,39.2,30.0,90,72,51,30.05,29.91,7,2,15,0.00
2013-10-22,50.0,41.1,31.0,44.0,35.5,28.0,91,81,63,30.05,29.80,7,2,20,0.04
2013-10-23,44.0,40.2,37.0,35.0,31.9,28.0,89,73,54,30.12,29.91,7,3,14,0.03
2013-10-24,43.0,37.9,33.0,34.0,26.1,22.0,86,64,42,30.37,30.10,12,4,21,0.00
2013-10-25,52.0,42.8,24.0,31.0,27.2,21.0,88,56,38,30.49,30.23,4,1,12,0.00
2013-10-26,61.0,45.3,36.0,41.0,30.2,-99.9,72,58,39,30.23,29.97,8,3,19,0.00
2013-10-27,59.0,43.4,28.0,35.0,29.6,25.0,91,62,33,30.13,30.03,3,0,8,0.00
2013-10-28,65.0,47.3,32.0,37.0,30.3,-99.9,84,58,31,30.28,30.07,4,1,8,0.00
2013-10-29,58.0,50.4,43.0,52.0,41.8,32.0,93,73,49,30.29,30.11,4,2,10,0.12
2013-10-30,68.0,59.5,53.0,65.0,57.5,51.0,96,93,85,30.11,29.89,4,2,10,0.15
2013-10-31,66.0,60.4,49.0,62.0,57.9,45.0,95,92,84,29.89,29.34,6,4,20,1.13
2013-11-1,56.0,49.2,42.0,46.0,43.2,39.0,93,80,63,29.83,29.59,5,3,17,0.10
2013-11-2,50.0,43.2,36.0,43.0,36.8,-99.9,93,81,59,30.17,29.82,13,2,21,0.02
2013-11-3,56.0,42.6,29.0,40.0,33.1,27.0,94,72,41,30.31,30.16,4,1,10,0.01
2013-11-4,57.0,49.8,44.0,44.0,40.2,36.0,78,70,57,30.25,30.16,7,3,17,0.00
2013-11-5,61.0,54.6,50.0,51.0,47.8,44.0,90,78,66,30.32,30.05,6,2,18,0.04
2013-11-6,59.0,49.2,38.0,53.0,45.7,33.0,92,88,67,30.22,29.92,11,4,20,0.29
2013-11-7,51.0,39.5,30.0,38.0,31.6,27.0,90,74,55,30.36,30.22,6,2,14,0.01
2013-11-8,54.0,40.4,27.0,34.0,30.1,25.0,92,69,42,30.38,30.09,6,2,14,0.00
2013-11-9,65.0,51.6,43.0,42.0,36.5,-99.9,73,59,41,30.21,30.03,7,3,16,0.00
2013-11-10,51.0,42.0,33.0,37.0,32.6,30.0,87,70,48,30.42,30.21,8,2,14,0.00
2013-11-11,54.0,41.3,29.0,44.0,35.0,26.0,91,79,64,30.45,30.11,12,4,19,0.13
2013-11-12,32.0,26.8,21.0,27.0,20.4,17.0,88,77,64,30.73,30.45,10,5,17,0.01
2013-11-13,41.0,28.9,18.0,23.0,18.8,15.0,89,69,41,30.68,30.30,6,2,14,0.00
2013-11-14,54.0,40.8,30.0,26.0,23.4,20.0,72,52,30,30.30,30.03,8,4,20,0.00
2013-11-15,54.0,46.7,41.0,42.0,32.4,26.0,85,58,47,30.04,29.95,6,3,13,0.00
2013-11-16,63.0,55.0,46.0,59.0,49.3,-99.9,91,84,70,29.96,29.60,11,6,22,0.08
2013-11-17,72.0,62.0,46.0,64.0,54.6,40.0,91,78,44,29.89,29.32,14,8,34,0.08
2013-11-18,51.0,43.5,33.0,41.0,34.2,27.0,87,71,48,30.25,29.89,10,4,18,0.00
2013-11-19,43.0,35.7,28.0,28.0,26.8,24.0,88,70,53,30.32,30.21,7,1,12,0.00